This is the latest recevied weather packets stored in our database for station/object W4TJP. If no packets are shown the sender has not sent any weather packets the latest 10 day(s).
| Time | Temp. | Humidity | Pressure | Rain* | Wind** | Luminosity | Snow |
|---|---|---|---|---|---|---|---|
| 1777582461 | 16.67° C | 48% | 1014.2 hPa | 0 mm | - | 488 W/m² | - |
| 1777582156 | 17.22° C | 53% | 1013.9 hPa | 0 mm | - | 525 W/m² | - |
| 1777581855 | 16.67° C | 49% | 1014.1 hPa | 0 mm | - | 468 W/m² | - |
| 1777581555 | 17.22° C | 46% | 1014 hPa | 0 mm | - | 494 W/m² | - |
| 1777581250 | 16.67° C | 52% | 1014.1 hPa | 0 mm | - | 511 W/m² | - |
| 1777580945 | 15.56° C | 50% | 1014.3 hPa | 0 mm | - | 398 W/m² | - |
| 1777580645 | 16.11° C | 49% | 1014.2 hPa | 0 mm | - | 446 W/m² | - |
| 1777580341 | 16.67° C | 50% | 1014.5 hPa | 0 mm | - | 270 W/m² | - |
| 1777580037 | 16.67° C | 50% | 1014.4 hPa | 0 mm | - | 422 W/m² | - |
| 1777579734 | 16.11° C | 49% | 1014.4 hPa | 0 mm | - | 372 W/m² | - |
| 1777579432 | 16.11° C | 50% | 1014.8 hPa | 0 mm | - | 336 W/m² | - |
| 1777579127 | 16.11° C | 49% | 1014.8 hPa | 0 mm | - | 339 W/m² | - |
| 1777578827 | 16.11° C | 50% | 1014.6 hPa | 0 mm | - | 624 W/m² | - |
| 1777578523 | 16.11° C | 50% | 1014.8 hPa | 0 mm | - | 532 W/m² | - |
| 1777578217 | 16.11° C | 50% | 1014.8 hPa | 0 mm | - | 519 W/m² | - |
| 1777577913 | 16.11° C | 51% | 1015.2 hPa | 0 mm | - | 483 W/m² | - |
| 1777577609 | 15.56° C | 51% | 1014.9 hPa | 0 mm | - | 438 W/m² | - |
| 1777577307 | 16.67° C | 50% | 1015.1 hPa | 0 mm | - | 442 W/m² | - |
| 1777577002 | 15.56° C | 52% | 1015.1 hPa | 0 mm | - | 456 W/m² | - |
| 1777576700 | 16.11° C | 54% | 1015.1 hPa | 0 mm | - | 436 W/m² | - |
| 1777576398 | 16.11° C | 54% | 1014.8 hPa | 0 mm | - | 432 W/m² | - |
| 1777576095 | 15.56° C | 54% | 1014.9 hPa | 0 mm | - | 422 W/m² | - |
| 1777575791 | 15.56° C | 51% | 1015.1 hPa | 0 mm | - | 380 W/m² | - |
| 1777575488 | 16.11° C | 51% | 1014.9 hPa | 0 mm | - | 493 W/m² | - |
| 1777575183 | 15.56° C | 54% | 1015.1 hPa | 0 mm | - | 497 W/m² | - |
* Rain latest hour (hover to see other rain measurements)
** Current wind speed in m/s (hover to see current wind gust speed)